createdAt,value
2023-05-24T00:00:55.119Z,28.70
2023-05-24T00:03:32.312Z,29.00
2023-05-24T00:06:09.345Z,28.90
2023-05-24T00:08:44.179Z,28.50
2023-05-24T00:11:22.814Z,29.20
2023-05-24T00:13:57.654Z,28.70
2023-05-24T00:16:37.124Z,27.90
2023-05-24T00:19:13.196Z,28.30
2023-05-24T00:21:47.610Z,29.30
2023-05-24T00:24:22.578Z,29.20
2023-05-24T00:26:59.460Z,28.40
2023-05-24T00:29:34.971Z,27.20
2023-05-24T00:32:12.725Z,27.00
2023-05-24T00:34:54.252Z,27.50
2023-05-24T00:37:29.921Z,26.80
2023-05-24T00:40:06.667Z,26.60
2023-05-24T00:42:46.238Z,25.90
2023-05-24T00:45:24.792Z,25.80
2023-05-24T00:48:02.265Z,25.90
2023-05-24T00:50:39.867Z,25.70
2023-05-24T00:53:16.512Z,25.70
2023-05-24T00:55:53.723Z,25.80
2023-05-24T00:58:32.992Z,25.60
2023-05-24T01:01:10.430Z,25.60
2023-05-24T01:03:49.863Z,25.80
2023-05-24T01:06:26.586Z,25.60
2023-05-24T01:09:26.757Z,25.30
2023-05-24T01:12:17.714Z,25.40
2023-05-24T01:15:04.608Z,25.50
2023-05-24T01:17:47.668Z,25.70
2023-05-24T01:20:33.115Z,25.40
2023-05-24T01:23:23.749Z,25.50
2023-05-24T01:26:27.246Z,26.00
2023-05-24T01:29:11.157Z,26.20
2023-05-24T01:31:47.640Z,26.70
2023-05-24T01:34:26.811Z,27.30
2023-05-24T01:37:02.877Z,27.30
2023-05-24T01:39:38.286Z,27.80
2023-05-24T01:42:30.616Z,28.10
2023-05-24T01:45:19.450Z,28.20
2023-05-24T01:48:21.354Z,28.00
2023-05-24T01:51:08.040Z,28.50
2023-05-24T01:53:52.095Z,28.90
2023-05-24T01:56:30.600Z,29.10
2023-05-24T01:59:07.936Z,29.10
2023-05-24T02:01:45.604Z,29.10
2023-05-24T02:04:30.726Z,29.90
2023-05-24T02:07:07.636Z,30.40
2023-05-24T02:09:44.017Z,30.80
2023-05-24T02:12:22.192Z,31.00
2023-05-24T02:14:58.909Z,31.60
2023-05-24T02:17:38.606Z,31.30
2023-05-24T02:20:18.871Z,30.80
2023-05-24T02:22:54.478Z,30.60
2023-05-24T02:25:29.938Z,30.80
2023-05-24T02:28:05.404Z,30.40
2023-05-24T02:30:41.913Z,29.50
2023-05-24T02:33:19.315Z,29.70
2023-05-24T02:35:55.180Z,29.90
2023-05-24T02:38:30.510Z,29.10
2023-05-24T02:41:06.815Z,28.90
2023-05-24T02:43:43.046Z,29.10
2023-05-24T02:46:20.228Z,29.10
2023-05-24T02:49:00.644Z,29.00
2023-05-24T02:51:38.965Z,28.80
2023-05-24T02:54:14.605Z,28.60
2023-05-24T02:56:52.155Z,28.70
2023-05-24T02:59:27.576Z,28.80
2023-05-24T03:02:07.685Z,28.80
2023-05-24T03:04:46.768Z,28.80
2023-05-24T03:07:24.047Z,29.00
2023-05-24T03:09:59.951Z,29.30
2023-05-24T03:12:36.540Z,29.30
2023-05-24T03:15:16.651Z,29.40
2023-05-24T03:17:53.900Z,28.70
2023-05-24T03:20:33.596Z,28.80
2023-05-24T03:23:12.951Z,28.90
2023-05-24T03:25:51.577Z,28.60
2023-05-24T03:28:33.178Z,28.40
2023-05-24T03:31:09.875Z,28.50
2023-05-24T03:33:46.019Z,28.90
2023-05-24T03:36:24.663Z,29.20
2023-05-24T03:39:02.875Z,29.20
2023-05-24T03:41:43.302Z,29.20
2023-05-24T03:44:21.540Z,29.40
2023-05-24T03:47:01.619Z,29.50
2023-05-24T03:49:38.770Z,29.50
2023-05-24T03:52:22.072Z,29.50
2023-05-24T03:54:58.051Z,29.20
2023-05-24T03:57:36.276Z,29.30
2023-05-24T04:00:15.329Z,29.40
2023-05-24T04:02:57.276Z,29.50
2023-05-24T04:05:37.655Z,28.60
2023-05-24T04:08:17.583Z,28.50
2023-05-24T04:10:56.947Z,28.90
2023-05-24T04:13:35.554Z,28.90
2023-05-24T04:16:15.765Z,28.90
2023-05-24T04:18:53.589Z,28.60
2023-05-24T04:21:34.459Z,28.70
2023-05-24T04:24:17.692Z,28.90
2023-05-24T04:26:55.849Z,29.20
2023-05-24T04:29:37.224Z,28.60
2023-05-24T04:32:31.244Z,28.50
2023-05-24T04:35:15.891Z,28.40
2023-05-24T04:37:55.799Z,28.40
2023-05-24T04:40:35.756Z,28.80
2023-05-24T04:43:13.588Z,29.00
2023-05-24T04:45:55.093Z,28.90
2023-05-24T04:48:32.562Z,28.00
2023-05-24T04:51:12.722Z,28.50
2023-05-24T04:53:54.038Z,29.00
2023-05-24T04:56:32.095Z,29.20
2023-05-24T04:59:19.434Z,29.10
2023-05-24T05:01:58.789Z,29.20
2023-05-24T05:04:40.111Z,29.00
2023-05-24T05:07:30.651Z,28.80
2023-05-24T05:10:15.242Z,28.90
2023-05-24T05:12:58.285Z,29.10
2023-05-24T05:15:41.565Z,29.00
2023-05-24T05:18:24.844Z,28.90
2023-05-24T05:21:03.706Z,28.80
2023-05-24T05:23:42.659Z,28.90
2023-05-24T05:26:22.485Z,29.20
2023-05-24T05:28:59.582Z,29.30
2023-05-24T05:31:36.588Z,29.30
2023-05-24T05:34:13.020Z,29.30
2023-05-24T05:36:52.975Z,29.20
2023-05-24T05:39:27.912Z,29.40
2023-05-24T05:42:08.492Z,29.50
2023-05-24T05:45:00.770Z,29.70
2023-05-24T05:47:37.963Z,29.70
2023-05-24T05:50:14.660Z,29.40
2023-05-24T05:52:50.895Z,29.30
2023-05-24T05:55:28.089Z,29.30
2023-05-24T05:58:03.875Z,29.30
2023-05-24T06:00:42.987Z,29.50
2023-05-24T06:03:22.681Z,29.10
2023-05-24T06:05:59.172Z,29.30
2023-05-24T06:08:36.743Z,29.40
2023-05-24T06:11:14.225Z,29.60
2023-05-24T06:13:49.419Z,29.70
2023-05-24T06:16:30.446Z,29.40
2023-05-24T06:19:06.941Z,29.00
2023-05-24T06:21:45.380Z,29.00
2023-05-24T06:24:23.337Z,29.10
2023-05-24T06:26:59.990Z,29.10
2023-05-24T06:29:36.638Z,29.10
2023-05-24T06:32:19.910Z,29.10
2023-05-24T06:34:55.951Z,28.90
2023-05-24T06:37:32.588Z,28.60
2023-05-24T06:40:08.881Z,28.50
2023-05-24T06:42:51.594Z,28.40
2023-05-24T06:45:34.497Z,28.40
2023-05-24T06:48:27.102Z,28.30
2023-05-24T06:51:05.826Z,28.30
2023-05-24T06:53:43.757Z,28.30
2023-05-24T06:56:24.836Z,28.20
2023-05-24T06:59:02.521Z,28.10
2023-05-24T07:01:41.274Z,28.20
2023-05-24T07:04:22.199Z,28.10
2023-05-24T07:06:59.941Z,28.10
2023-05-24T07:09:39.716Z,27.60
2023-05-24T07:12:17.561Z,26.80
2023-05-24T07:14:55.655Z,26.80
2023-05-24T07:17:31.688Z,27.10
2023-05-24T07:20:14.399Z,27.30
2023-05-24T07:22:51.530Z,27.40
2023-05-24T07:25:29.085Z,27.30
2023-05-24T07:28:05.479Z,27.20
2023-05-24T07:30:40.791Z,27.40
2023-05-24T07:33:18.342Z,27.30
2023-05-24T07:35:57.192Z,27.50
2023-05-24T07:38:35.214Z,27.60
2023-05-24T07:41:12.460Z,27.80
2023-05-24T07:43:51.369Z,27.80
2023-05-24T07:46:28.230Z,27.90
2023-05-24T07:49:05.931Z,28.00
2023-05-24T07:51:47.159Z,27.80
2023-05-24T07:54:23.481Z,27.90
2023-05-24T07:56:59.075Z,27.50
2023-05-24T07:59:34.389Z,26.90
2023-05-24T08:02:12.950Z,26.60
2023-05-24T08:04:48.188Z,26.40
2023-05-24T08:07:31.620Z,26.70
2023-05-24T08:10:09.031Z,26.80
2023-05-24T08:12:46.614Z,26.30
2023-05-24T08:15:22.723Z,26.30
2023-05-24T08:17:59.608Z,26.50
2023-05-24T08:20:37.786Z,26.50
2023-05-24T08:23:23.173Z,26.40
2023-05-24T08:26:01.267Z,26.20
2023-05-24T08:28:38.859Z,26.40
2023-05-24T08:31:16.525Z,26.50
2023-05-24T08:33:57.782Z,26.50
2023-05-24T08:36:34.546Z,26.60
2023-05-24T08:39:20.062Z,26.30
2023-05-24T08:42:08.695Z,25.80
2023-05-24T08:45:01.570Z,25.60
2023-05-24T08:47:40.977Z,25.50
2023-05-24T08:50:19.931Z,25.30
2023-05-24T08:52:58.486Z,25.50
2023-05-24T08:55:37.973Z,25.50
2023-05-24T08:58:14.410Z,25.50
2023-05-24T09:00:50.042Z,25.40
2023-05-24T09:03:36.838Z,25.70
2023-05-24T09:06:22.520Z,25.90
2023-05-24T09:09:01.197Z,25.70
2023-05-24T09:11:41.101Z,25.70
2023-05-24T09:14:18.672Z,25.60
2023-05-24T09:16:54.125Z,25.60
2023-05-24T09:19:33.013Z,25.20
2023-05-24T09:22:08.344Z,25.50
2023-05-24T09:24:47.527Z,25.80
2023-05-24T09:27:26.985Z,25.90
2023-05-24T09:30:07.164Z,25.80
2023-05-24T09:32:44.010Z,25.80
2023-05-24T09:35:21.200Z,25.70
2023-05-24T09:37:58.760Z,25.80
2023-05-24T09:40:44.028Z,25.40
2023-05-24T09:43:28.188Z,25.30
2023-05-24T09:46:07.463Z,25.20
2023-05-24T09:48:47.784Z,25.40
2023-05-24T09:51:25.443Z,25.30
2023-05-24T09:54:07.312Z,25.10
2023-05-24T09:56:49.019Z,25.20
2023-05-24T09:59:37.205Z,25.40
2023-05-24T10:02:19.836Z,25.10
2023-05-24T10:05:07.425Z,25.00
2023-05-24T10:07:51.432Z,24.90
2023-05-24T10:10:28.933Z,24.90
2023-05-24T10:13:10.462Z,24.90
2023-05-24T10:15:56.437Z,24.70
2023-05-24T10:18:35.199Z,24.60
2023-05-24T10:21:14.077Z,24.80
2023-05-24T10:24:00.574Z,24.70
2023-05-24T10:26:42.972Z,24.60
2023-05-24T10:29:41.753Z,24.60
2023-05-24T10:32:26.630Z,24.30
2023-05-24T10:35:03.506Z,24.10
2023-05-24T10:37:39.780Z,23.60
2023-05-24T10:40:29.107Z,23.30
2023-05-24T10:43:14.066Z,23.40
2023-05-24T10:45:56.272Z,23.60
2023-05-24T10:48:47.892Z,23.40
2023-05-24T10:51:42.085Z,23.50
2023-05-24T10:54:34.771Z,23.60
2023-05-24T10:57:19.945Z,23.40
2023-05-24T10:59:57.350Z,23.30
2023-05-24T11:02:39.757Z,23.10
2023-05-24T11:05:23.761Z,23.00
2023-05-24T11:08:09.087Z,23.00
2023-05-24T11:10:55.090Z,22.90
2023-05-24T11:13:38.965Z,23.00
2023-05-24T11:16:16.422Z,23.10
2023-05-24T11:19:16.707Z,23.20
2023-05-24T11:22:09.396Z,23.10
2023-05-24T11:24:49.191Z,22.80
2023-05-24T11:27:30.387Z,22.80
2023-05-24T11:30:09.995Z,22.90
2023-05-24T11:32:52.420Z,22.90
2023-05-24T11:35:36.332Z,22.60
2023-05-24T11:38:22.773Z,22.40
2023-05-24T11:41:03.524Z,22.50
2023-05-24T11:43:45.949Z,22.70
2023-05-24T11:46:26.738Z,22.60
2023-05-24T11:49:07.477Z,22.40
2023-05-24T11:51:46.844Z,22.40
2023-05-24T11:54:29.294Z,22.20
2023-05-24T11:57:12.228Z,22.50
2023-05-24T11:59:59.417Z,22.80
2023-05-24T12:02:39.070Z,22.80
2023-05-24T12:05:15.893Z,22.70
2023-05-24T12:07:57.966Z,22.70
2023-05-24T12:10:49.328Z,22.60
2023-05-24T12:13:32.540Z,22.20
2023-05-24T12:16:18.331Z,22.20
2023-05-24T12:19:05.805Z,22.10
2023-05-24T12:21:53.969Z,22.00
2023-05-24T12:24:38.800Z,22.20
2023-05-24T12:27:26.179Z,22.40
2023-05-24T12:30:13.224Z,22.20
2023-05-24T12:32:55.316Z,22.10
2023-05-24T12:35:40.277Z,21.90
2023-05-24T12:38:27.090Z,21.90
2023-05-24T12:41:13.087Z,21.80
2023-05-24T12:43:54.624Z,22.00
2023-05-24T12:46:34.547Z,21.90
2023-05-24T12:49:14.106Z,21.80
2023-05-24T12:51:56.113Z,21.90
2023-05-24T12:54:40.378Z,22.00
2023-05-24T12:57:29.052Z,22.00
2023-05-24T13:00:18.569Z,21.90
2023-05-24T13:03:00.178Z,22.00
2023-05-24T13:05:39.452Z,22.10
2023-05-24T13:08:24.050Z,22.00
2023-05-24T13:14:18.036Z,21.70
2023-05-24T13:17:03.246Z,21.60
2023-05-24T13:19:53.525Z,21.70
2023-05-24T13:22:39.596Z,21.40
2023-05-24T13:25:24.885Z,21.60
2023-05-24T13:28:14.544Z,21.70
2023-05-24T13:31:07.272Z,21.50
2023-05-24T13:33:59.425Z,21.70
2023-05-24T13:36:42.675Z,21.70
2023-05-24T13:39:25.430Z,21.80
2023-05-24T13:42:14.447Z,21.80
2023-05-24T13:44:53.674Z,21.70
2023-05-24T13:47:44.010Z,21.60
2023-05-24T13:50:32.120Z,21.60
2023-05-24T13:53:27.176Z,21.50
2023-05-24T13:56:07.250Z,21.40
2023-05-24T13:59:09.508Z,21.60
2023-05-24T14:01:52.609Z,21.50
2023-05-24T14:04:37.096Z,21.50
2023-05-24T14:07:23.190Z,21.50
2023-05-24T14:10:10.407Z,21.70
2023-05-24T14:13:20.778Z,21.60
2023-05-24T14:16:04.663Z,21.70
2023-05-24T14:18:56.758Z,21.70
2023-05-24T14:21:43.524Z,21.50
2023-05-24T14:24:25.283Z,21.40
2023-05-24T14:27:07.456Z,21.30
2023-05-24T14:29:50.203Z,21.50
2023-05-24T14:32:33.533Z,21.40
2023-05-24T14:35:22.015Z,21.50
2023-05-24T14:38:08.264Z,21.20
2023-05-24T14:41:01.803Z,21.40
2023-05-24T14:43:47.615Z,21.30
2023-05-24T14:46:28.919Z,21.20
2023-05-24T14:49:10.994Z,21.20
2023-05-24T14:51:54.960Z,21.20
2023-05-24T14:54:41.349Z,21.20
2023-05-24T14:57:24.960Z,21.30
2023-05-24T15:00:14.037Z,21.20
2023-05-24T15:02:54.886Z,21.40
2023-05-24T15:05:47.178Z,21.40
2023-05-24T15:08:29.076Z,21.50
2023-05-24T15:11:23.586Z,21.50
2023-05-24T15:14:10.963Z,21.50
2023-05-24T15:16:49.459Z,21.70
2023-05-24T15:19:27.651Z,21.60
2023-05-24T15:22:05.398Z,21.70
2023-05-24T15:24:55.371Z,21.50
2023-05-24T15:27:47.095Z,21.40
2023-05-24T15:30:30.854Z,21.30
2023-05-24T15:33:19.791Z,21.20
2023-05-24T15:36:02.606Z,21.30
2023-05-24T15:38:50.653Z,21.40
2023-05-24T15:41:28.895Z,21.50
2023-05-24T15:44:16.418Z,21.60
2023-05-24T15:46:57.907Z,21.70
2023-05-24T15:49:36.815Z,21.70
2023-05-24T15:52:22.281Z,21.60
2023-05-24T15:55:05.379Z,21.60
2023-05-24T15:57:43.189Z,21.50
2023-05-24T16:00:32.890Z,21.50
2023-05-24T16:03:11.372Z,21.70
2023-05-24T16:05:54.589Z,21.90
2023-05-24T16:08:37.190Z,21.70
2023-05-24T16:11:15.793Z,21.90
2023-05-24T16:13:53.689Z,22.00
2023-05-24T16:16:42.084Z,22.10
2023-05-24T16:19:21.721Z,22.40
2023-05-24T16:22:11.817Z,22.40
2023-05-24T16:24:51.160Z,22.20
2023-05-24T16:27:35.943Z,22.30
2023-05-24T16:30:17.351Z,22.30
2023-05-24T16:33:02.345Z,22.20
2023-05-24T16:35:42.809Z,22.10
2023-05-24T16:38:23.330Z,22.20
2023-05-24T16:41:02.998Z,22.10
2023-05-24T16:43:52.344Z,21.80
2023-05-24T16:46:31.769Z,21.90
2023-05-24T16:49:17.357Z,22.10
2023-05-24T16:51:58.161Z,22.10
2023-05-24T16:54:36.900Z,21.80
2023-05-24T16:57:14.475Z,22.00
2023-05-24T16:59:56.346Z,22.10
2023-05-24T17:02:35.037Z,22.20
2023-05-24T17:05:16.969Z,22.20
2023-05-24T17:07:55.234Z,22.30
2023-05-24T17:10:32.205Z,22.40
2023-05-24T17:13:09.108Z,22.40
2023-05-24T17:15:46.312Z,22.50
2023-05-24T17:18:29.374Z,22.60
2023-05-24T17:21:14.461Z,22.40
2023-05-24T17:23:50.672Z,22.50
2023-05-24T17:26:29.553Z,22.60
2023-05-24T17:29:04.998Z,22.60
2023-05-24T17:31:40.556Z,22.60
2023-05-24T17:34:16.843Z,22.60
2023-05-24T17:36:58.067Z,22.60
2023-05-24T17:39:34.676Z,22.60
2023-05-24T17:42:12.331Z,22.70
2023-05-24T17:44:47.863Z,22.60
2023-05-24T17:47:26.907Z,22.60
2023-05-24T17:50:06.402Z,22.70
2023-05-24T17:52:50.285Z,22.60
2023-05-24T17:55:27.756Z,22.60
2023-05-24T17:58:04.604Z,22.70
2023-05-24T18:00:47.285Z,22.60
2023-05-24T18:03:24.436Z,22.70
2023-05-24T18:06:00.462Z,22.70
2023-05-24T18:08:40.166Z,22.70
2023-05-24T18:11:15.931Z,22.60
2023-05-24T18:13:53.709Z,22.70
2023-05-24T18:16:28.970Z,22.70
2023-05-24T18:19:08.291Z,22.70
2023-05-24T18:21:45.250Z,22.80
2023-05-24T18:24:23.653Z,22.70
2023-05-24T18:27:01.171Z,22.70
2023-05-24T18:29:38.466Z,22.70
2023-05-24T18:32:14.388Z,22.70
2023-05-24T18:34:49.722Z,22.80
2023-05-24T18:37:25.679Z,22.70
2023-05-24T18:40:07.621Z,22.70
2023-05-24T18:42:44.793Z,22.70
2023-05-24T18:45:20.731Z,22.70
2023-05-24T18:47:55.621Z,22.70
2023-05-24T18:50:30.318Z,22.70
2023-05-24T18:53:04.664Z,22.70
2023-05-24T18:55:45.310Z,22.70
2023-05-24T18:58:21.128Z,22.70
2023-05-24T19:00:59.349Z,22.60
2023-05-24T19:03:33.479Z,22.70
2023-05-24T19:06:08.533Z,22.70
2023-05-24T19:08:43.480Z,22.70
2023-05-24T19:11:22.083Z,22.80
2023-05-24T19:13:56.849Z,22.80
2023-05-24T19:16:31.907Z,22.70
2023-05-24T19:19:06.441Z,22.70
2023-05-24T19:21:43.008Z,22.60
2023-05-24T19:24:17.089Z,22.70
2023-05-24T19:26:54.204Z,22.70
2023-05-24T19:29:29.158Z,22.70
2023-05-24T19:32:02.816Z,22.70
2023-05-24T19:34:38.674Z,22.80
2023-05-24T19:37:13.178Z,22.70
2023-05-24T19:40:43.336Z,22.70
2023-05-24T19:43:19.603Z,22.80
2023-05-24T19:45:55.444Z,22.70
2023-05-24T19:48:29.943Z,22.80
2023-05-24T19:51:05.701Z,22.70
2023-05-24T19:53:45.204Z,22.70
2023-05-24T19:56:20.895Z,22.70
2023-05-24T19:59:17.594Z,22.70
2023-05-24T20:01:54.696Z,22.70
2023-05-24T20:04:31.438Z,22.70
2023-05-24T20:07:06.525Z,22.80
2023-05-24T20:09:44.826Z,22.60
2023-05-24T20:12:18.143Z,22.70
2023-05-24T20:14:56.419Z,22.50
2023-05-24T20:17:31.652Z,22.50
2023-05-24T20:20:08.347Z,22.50
2023-05-24T20:22:44.116Z,22.60
2023-05-24T20:25:19.639Z,22.60
2023-05-24T20:27:53.789Z,22.60
2023-05-24T20:30:31.165Z,22.50
2023-05-24T20:33:06.347Z,22.50
2023-05-24T20:35:41.898Z,22.40
2023-05-24T20:38:16.983Z,22.50
2023-05-24T20:40:53.735Z,22.50
2023-05-24T20:43:27.966Z,22.60
2023-05-24T20:46:07.192Z,22.40
2023-05-24T20:48:44.278Z,22.50
2023-05-24T20:51:18.975Z,22.50
2023-05-24T20:53:55.130Z,22.50
2023-05-24T20:56:31.326Z,22.40
2023-05-24T20:59:05.785Z,22.40
2023-05-24T21:01:41.591Z,22.40
2023-05-24T21:04:18.900Z,22.40
2023-05-24T21:06:55.058Z,22.50
2023-05-24T21:09:28.450Z,22.50
2023-05-24T21:12:20.444Z,22.50
2023-05-24T21:14:55.928Z,22.50
2023-05-24T21:17:32.029Z,22.40
2023-05-24T21:20:07.902Z,22.40
2023-05-24T21:22:42.054Z,22.40
2023-05-24T21:25:17.366Z,22.40
2023-05-24T21:27:52.178Z,22.50
2023-05-24T21:30:27.669Z,22.50
2023-05-24T21:33:02.847Z,22.50
2023-05-24T21:35:39.440Z,22.40
2023-05-24T21:38:13.356Z,22.50
2023-05-24T21:40:48.585Z,22.40
2023-05-24T21:43:24.354Z,22.50
2023-05-24T21:45:58.593Z,22.50
2023-05-24T21:48:36.668Z,22.50
2023-05-24T21:51:09.921Z,22.50
2023-05-24T21:53:47.263Z,22.50
2023-05-24T21:56:20.772Z,22.50
2023-05-24T21:58:54.990Z,22.50
2023-05-24T22:01:29.811Z,22.50
2023-05-24T22:04:22.577Z,22.50
2023-05-24T22:07:00.002Z,22.60
2023-05-24T22:09:35.941Z,22.60
2023-05-24T22:12:13.814Z,22.60
2023-05-24T22:14:52.965Z,22.60
2023-05-24T22:17:32.155Z,22.50
2023-05-24T22:20:21.768Z,22.50
2023-05-24T22:23:03.479Z,22.60
2023-05-24T22:25:38.553Z,22.50
2023-05-24T22:28:13.884Z,22.40
2023-05-24T22:30:51.620Z,22.50
2023-05-24T22:33:26.895Z,22.50
2023-05-24T22:36:03.208Z,22.60
2023-05-24T22:38:39.953Z,22.50
2023-05-24T22:41:13.815Z,22.50
2023-05-24T22:43:53.955Z,22.60
2023-05-24T22:46:32.938Z,22.60
2023-05-24T22:49:14.598Z,22.70
2023-05-24T22:51:55.829Z,22.70
2023-05-24T22:54:30.128Z,22.70
2023-05-24T22:57:05.707Z,22.80
2023-05-24T22:59:44.590Z,22.70
2023-05-24T23:02:24.884Z,22.80
2023-05-24T23:05:08.902Z,22.80
2023-05-24T23:08:00.658Z,22.80
2023-05-24T23:10:42.132Z,22.90
2023-05-24T23:13:20.461Z,22.90
2023-05-24T23:15:56.389Z,22.90
2023-05-24T23:18:30.249Z,22.90
2023-05-24T23:21:11.646Z,22.80
2023-05-24T23:23:51.025Z,22.60
2023-05-24T23:26:26.382Z,22.70
2023-05-24T23:29:04.216Z,22.80
2023-05-24T23:31:46.437Z,22.90
2023-05-24T23:34:24.675Z,22.90
2023-05-24T23:37:00.149Z,22.90
2023-05-24T23:39:36.622Z,23.00
2023-05-24T23:42:11.748Z,22.90
2023-05-24T23:44:46.421Z,23.00
2023-05-24T23:47:22.003Z,23.00
2023-05-24T23:49:57.416Z,23.00
2023-05-24T23:52:33.483Z,23.10
2023-05-24T23:55:19.622Z,23.10
2023-05-24T23:57:53.630Z,22.90
